createdAt,value
2018-05-07T00:00:15.453Z,1.20
2018-05-07T00:02:44.339Z,1.17
2018-05-07T00:05:12.499Z,1.08
2018-05-07T00:07:40.607Z,1.20
2018-05-07T00:10:09.502Z,0.93
2018-05-07T00:12:38.380Z,1.12
2018-05-07T00:15:06.509Z,1.10
2018-05-07T00:17:34.653Z,1.20
2018-05-07T00:20:03.537Z,1.02
2018-05-07T00:22:32.416Z,1.30
2018-05-07T00:25:00.560Z,1.12
2018-05-07T00:27:28.674Z,1.37
2018-05-07T00:29:56.800Z,1.12
2018-05-07T00:32:24.916Z,1.30
2018-05-07T00:34:53.061Z,1.20
2018-05-07T00:37:21.198Z,1.27
2018-05-07T00:39:50.082Z,1.33
2018-05-07T00:42:18.202Z,1.17
2018-05-07T00:44:46.356Z,1.60
2018-05-07T00:47:15.232Z,1.30
2018-05-07T00:49:44.179Z,1.40
2018-05-07T00:52:13.041Z,1.02
2018-05-07T00:54:59.817Z,1.05
2018-05-07T00:57:27.964Z,1.30
2018-05-07T00:59:56.082Z,1.20
2018-05-07T01:02:24.194Z,1.37
2018-05-07T01:04:52.359Z,1.48
2018-05-07T01:07:21.228Z,1.40
2018-05-07T01:09:49.374Z,1.12
2018-05-07T01:12:17.495Z,1.30
2018-05-07T01:14:45.607Z,1.70
2018-05-07T01:17:13.747Z,1.55
2018-05-07T01:19:42.630Z,1.30
2018-05-07T01:22:10.774Z,1.52
2018-05-07T01:24:38.884Z,1.70
2018-05-07T01:27:06.990Z,1.27
2018-05-07T01:29:35.117Z,1.80
2018-05-07T01:32:03.234Z,1.48
2018-05-07T01:34:32.137Z,1.30
2018-05-07T01:37:01.009Z,1.25
2018-05-07T01:39:29.125Z,1.50
2018-05-07T01:41:57.260Z,1.40
2018-05-07T01:44:25.372Z,1.60
2018-05-07T01:46:53.481Z,1.50
2018-05-07T01:49:21.618Z,1.40
2018-05-07T01:51:50.596Z,1.60
2018-05-07T01:54:18.717Z,1.60
2018-05-07T01:56:46.839Z,1.40
2018-05-07T01:59:14.961Z,1.83
2018-05-07T02:01:43.097Z,1.20
2018-05-07T02:04:11.217Z,1.35
2018-05-07T02:06:39.337Z,1.30
2018-05-07T02:09:07.455Z,1.35
2018-05-07T02:11:36.327Z,1.70
2018-05-07T02:14:04.471Z,1.50
2018-05-07T02:16:32.591Z,1.52
2018-05-07T02:19:01.476Z,1.58
2018-05-07T02:21:29.605Z,1.70
2018-05-07T02:23:57.713Z,1.50
2018-05-07T02:26:25.857Z,1.30
2018-05-07T02:28:53.981Z,1.67
2018-05-07T02:31:22.127Z,1.42
2018-05-07T02:33:50.227Z,1.50
2018-05-07T02:36:18.346Z,1.55
2018-05-07T02:38:46.499Z,1.50
2018-05-07T02:41:14.598Z,1.67
2018-05-07T02:43:43.476Z,1.67
2018-05-07T02:46:12.389Z,1.40
2018-05-07T02:48:41.261Z,1.62
2018-05-07T02:51:10.178Z,2.00
2018-05-07T02:53:38.300Z,1.55
2018-05-07T02:56:06.414Z,1.70
2018-05-07T02:58:35.341Z,1.67
2018-05-07T03:01:03.450Z,1.62
2018-05-07T03:03:31.569Z,1.77
2018-05-07T03:06:00.479Z,1.23
2018-05-07T03:08:28.593Z,1.60
2018-05-07T03:10:56.707Z,1.58
2018-05-07T03:13:24.825Z,1.40
2018-05-07T03:15:52.924Z,1.50
2018-05-07T03:18:21.109Z,1.52
2018-05-07T03:20:49.193Z,1.90
2018-05-07T03:23:17.330Z,1.58
2018-05-07T03:25:45.444Z,1.60
2018-05-07T03:28:13.565Z,1.12
2018-05-07T03:30:42.461Z,1.40
2018-05-07T03:33:11.335Z,1.50
2018-05-07T03:35:39.439Z,1.58
2018-05-07T03:38:07.636Z,1.35
2018-05-07T03:40:35.789Z,1.70
2018-05-07T03:43:03.879Z,1.40
2018-05-07T03:45:32.018Z,1.58
2018-05-07T03:48:00.130Z,1.37
2018-05-07T03:50:28.262Z,1.60
2018-05-07T03:52:56.406Z,1.40
2018-05-07T03:55:24.521Z,1.77
2018-05-07T03:57:52.646Z,1.50
2018-05-07T04:00:20.750Z,1.63
2018-05-07T04:02:48.886Z,1.90
2018-05-07T04:05:17.831Z,1.70
2018-05-07T04:07:45.963Z,1.50
2018-05-07T04:10:14.850Z,1.60
2018-05-07T04:12:43.727Z,1.33
2018-05-07T04:15:11.943Z,1.50
2018-05-07T04:17:58.084Z,1.50
2018-05-07T04:20:44.212Z,1.30
2018-05-07T04:23:30.317Z,1.62
2018-05-07T04:25:59.194Z,1.60
2018-05-07T04:28:27.321Z,1.43
2018-05-07T04:30:55.442Z,1.50
2018-05-07T04:33:24.333Z,1.80
2018-05-07T04:35:53.210Z,1.60
2018-05-07T04:38:21.345Z,1.70
2018-05-07T04:40:49.457Z,1.73
2018-05-07T04:43:17.572Z,1.73
2018-05-07T04:45:45.739Z,1.77
2018-05-07T04:48:14.622Z,1.40
2018-05-07T04:50:43.517Z,2.17
2018-05-07T04:53:12.421Z,2.00
2018-05-07T04:55:41.294Z,2.17
2018-05-07T04:58:09.400Z,1.65
2018-05-07T05:00:37.514Z,1.87
2018-05-07T05:03:05.624Z,1.80
2018-05-07T05:05:34.545Z,1.92
2018-05-07T05:08:03.416Z,1.95
2018-05-07T05:10:31.606Z,2.03
2018-05-07T05:13:00.498Z,2.00
2018-05-07T05:15:29.371Z,2.08
2018-05-07T05:17:57.489Z,2.10
2018-05-07T05:20:25.653Z,2.05
2018-05-07T05:22:54.517Z,2.15
2018-05-07T05:25:22.629Z,2.15
2018-05-07T05:27:51.500Z,2.20
2018-05-07T05:30:19.622Z,2.20
2018-05-07T05:32:47.730Z,2.10
2018-05-07T05:35:15.862Z,2.15
2018-05-07T05:37:44.743Z,1.90
2018-05-07T05:40:13.637Z,2.10
2018-05-07T05:42:42.515Z,2.08
2018-05-07T05:45:10.640Z,2.20
2018-05-07T05:47:38.762Z,2.40
2018-05-07T05:50:06.905Z,2.22
2018-05-07T05:52:35.033Z,2.37
2018-05-07T05:55:03.964Z,2.95
2018-05-07T05:57:32.067Z,2.70
2018-05-07T06:00:00.176Z,2.87
2018-05-07T06:02:28.281Z,3.12
2018-05-07T06:04:57.163Z,2.90
2018-05-07T06:07:26.062Z,2.95
2018-05-07T06:09:54.945Z,3.08
2018-05-07T06:12:23.044Z,3.30
2018-05-07T06:14:51.279Z,2.92
2018-05-07T06:17:19.279Z,3.20
2018-05-07T06:19:48.289Z,3.00
2018-05-07T06:22:16.407Z,3.05
2018-05-07T06:24:44.530Z,3.35
2018-05-07T06:27:12.698Z,3.00
2018-05-07T06:29:40.747Z,3.20
2018-05-07T06:32:08.860Z,3.40
2018-05-07T06:34:36.982Z,3.40
2018-05-07T06:37:05.168Z,3.20
2018-05-07T06:39:33.285Z,2.90
2018-05-07T06:42:01.392Z,3.30
2018-05-07T06:44:29.519Z,3.10
2018-05-07T06:46:57.638Z,2.90
2018-05-07T06:49:25.767Z,2.97
2018-05-07T06:51:53.874Z,3.70
2018-05-07T06:54:22.791Z,3.08
2018-05-07T06:56:51.669Z,3.28
2018-05-07T06:59:20.554Z,2.75
2018-05-07T07:01:48.696Z,2.90
2018-05-07T07:04:16.820Z,2.55
2018-05-07T07:06:45.705Z,2.90
2018-05-07T07:09:13.813Z,2.87
2018-05-07T07:11:41.936Z,2.83
2018-05-07T07:14:10.038Z,2.67
2018-05-07T07:16:38.168Z,2.90
2018-05-07T07:19:06.280Z,2.80
2018-05-07T07:21:34.394Z,3.22
2018-05-07T07:24:03.307Z,2.60
2018-05-07T07:26:31.456Z,2.55
2018-05-07T07:29:00.342Z,2.83
2018-05-07T07:31:29.233Z,3.67
2018-05-07T07:33:57.369Z,2.75
2018-05-07T07:36:25.489Z,3.08
2018-05-07T07:38:53.599Z,3.08
2018-05-07T07:41:21.842Z,3.28
2018-05-07T07:43:49.974Z,3.42
2018-05-07T07:46:18.097Z,3.00
2018-05-07T07:48:46.222Z,3.42
2018-05-07T07:51:14.359Z,3.33
2018-05-07T07:53:42.555Z,3.30
2018-05-07T07:56:10.622Z,3.25
2018-05-07T07:58:39.501Z,3.60
2018-05-07T08:01:07.624Z,3.40
2018-05-07T08:03:35.741Z,3.17
2018-05-07T08:06:03.858Z,2.60
2018-05-07T08:08:32.727Z,2.90
2018-05-07T08:11:00.865Z,2.40
2018-05-07T08:13:28.971Z,2.83
2018-05-07T08:15:57.102Z,2.45
2018-05-07T08:18:25.293Z,2.55
2018-05-07T08:20:53.369Z,2.95
2018-05-07T08:23:21.489Z,2.53
2018-05-07T08:25:49.632Z,2.47
2018-05-07T08:28:17.738Z,2.42
2018-05-07T08:30:46.612Z,2.37
2018-05-07T08:33:14.736Z,2.72
2018-05-07T08:35:43.615Z,2.80
2018-05-07T08:38:12.514Z,2.87
2018-05-07T08:40:40.623Z,2.30
2018-05-07T08:43:08.736Z,2.42
2018-05-07T08:45:36.846Z,2.28
2018-05-07T08:48:05.741Z,2.37
2018-05-07T08:50:33.845Z,2.62
2018-05-07T08:53:02.001Z,2.72
2018-05-07T08:55:30.080Z,2.47
2018-05-07T08:57:58.960Z,2.65
2018-05-07T09:00:27.069Z,2.65
2018-05-07T09:02:55.185Z,3.20
2018-05-07T09:05:23.604Z,2.35
2018-05-07T09:07:51.731Z,2.35
2018-05-07T09:10:19.847Z,2.35
2018-05-07T09:12:47.966Z,2.15
2018-05-07T09:15:16.078Z,2.75
2018-05-07T09:17:44.192Z,2.10
2018-05-07T09:20:13.069Z,2.03
2018-05-07T09:22:41.186Z,2.40
2018-05-07T09:25:09.306Z,2.62
2018-05-07T09:27:37.422Z,2.50
2018-05-07T09:30:06.296Z,2.80
2018-05-07T09:32:34.415Z,2.67
2018-05-07T09:35:02.516Z,2.72
2018-05-07T09:37:30.645Z,3.05
2018-05-07T09:39:59.534Z,3.30
2018-05-07T09:42:27.654Z,3.33
2018-05-07T09:44:55.766Z,2.95
2018-05-07T09:47:24.005Z,3.10
2018-05-07T09:49:52.123Z,2.58
2018-05-07T09:52:20.255Z,2.35
2018-05-07T09:54:48.363Z,2.28
2018-05-07T09:57:16.472Z,2.30
2018-05-07T09:59:44.590Z,2.17
2018-05-07T10:02:12.701Z,1.80
2018-05-07T10:04:40.837Z,1.80
2018-05-07T10:07:08.948Z,1.58
2018-05-07T10:09:37.072Z,1.58
2018-05-07T10:12:05.952Z,1.17
2018-05-07T10:14:34.076Z,1.30
2018-05-07T10:17:02.269Z,1.08
2018-05-07T10:19:30.309Z,1.23
2018-05-07T10:21:58.432Z,1.02
2018-05-07T10:24:26.572Z,1.40
2018-05-07T10:26:54.711Z,1.50
2018-05-07T10:29:22.839Z,1.00
2018-05-07T10:31:50.949Z,1.17
2018-05-07T10:34:19.069Z,1.42
2018-05-07T10:36:47.987Z,1.30
2018-05-07T10:39:16.113Z,1.30
2018-05-07T10:41:44.211Z,1.37
2018-05-07T10:44:13.086Z,1.33
2018-05-07T10:46:41.197Z,1.20
2018-05-07T10:49:09.407Z,1.27
2018-05-07T10:51:37.464Z,1.20
2018-05-07T10:54:05.588Z,1.33
2018-05-07T10:56:33.705Z,1.10
2018-05-07T10:59:01.834Z,1.48
2018-05-07T11:01:29.972Z,1.20
2018-05-07T11:03:58.086Z,1.50
2018-05-07T11:06:26.197Z,1.40
2018-05-07T11:08:55.098Z,1.55
2018-05-07T11:11:23.981Z,1.58
2018-05-07T11:13:52.096Z,1.10
2018-05-07T11:16:20.208Z,1.92
2018-05-07T11:18:48.329Z,1.60
2018-05-07T11:21:17.209Z,1.30
2018-05-07T11:23:46.102Z,1.70
2018-05-07T11:26:15.013Z,1.75
2018-05-07T11:28:43.911Z,1.50
2018-05-07T11:31:12.903Z,1.20
2018-05-07T11:33:40.967Z,1.60
2018-05-07T11:36:09.849Z,1.80
2018-05-07T11:38:37.940Z,1.20
2018-05-07T11:41:06.828Z,1.45
2018-05-07T11:43:34.935Z,1.27
2018-05-07T11:46:03.053Z,1.58
2018-05-07T11:48:31.161Z,1.70
2018-05-07T11:51:00.176Z,2.00
2018-05-07T11:53:29.053Z,1.30
2018-05-07T11:55:57.166Z,2.00
2018-05-07T11:58:25.316Z,1.70
2018-05-07T12:00:53.458Z,1.30
2018-05-07T12:03:21.577Z,1.60
2018-05-07T12:05:50.493Z,1.70
2018-05-07T12:08:18.597Z,1.40
2018-05-07T12:10:46.719Z,1.55
2018-05-07T12:13:15.602Z,1.40
2018-05-07T12:15:43.735Z,1.48
2018-05-07T12:18:11.848Z,1.37
2018-05-07T12:20:39.988Z,1.50
2018-05-07T12:23:08.170Z,1.35
2018-05-07T12:25:36.225Z,1.37
2018-05-07T12:28:04.330Z,1.12
2018-05-07T12:30:32.469Z,1.42
2018-05-07T12:33:00.589Z,1.73
2018-05-07T12:35:28.718Z,1.10
2018-05-07T12:37:57.586Z,1.40
2018-05-07T12:40:25.706Z,1.10
2018-05-07T12:42:53.840Z,1.15
2018-05-07T12:45:21.974Z,1.00
2018-05-07T12:47:50.105Z,0.93
2018-05-07T12:50:18.238Z,1.02
2018-05-07T12:52:46.369Z,1.30
2018-05-07T12:55:15.255Z,1.00
2018-05-07T12:57:43.380Z,1.10
2018-05-07T13:00:11.514Z,1.17
2018-05-07T13:02:40.402Z,1.40
2018-05-07T13:05:08.561Z,1.23
2018-05-07T13:07:36.685Z,0.95
2018-05-07T13:10:04.795Z,0.80
2018-05-07T13:12:32.920Z,1.00
2018-05-07T13:15:01.848Z,1.02
2018-05-07T13:17:29.968Z,0.90
2018-05-07T13:19:58.073Z,0.98
2018-05-07T13:22:26.957Z,0.80
2018-05-07T13:24:55.091Z,0.95
2018-05-07T13:27:23.209Z,0.75
2018-05-07T13:29:51.341Z,0.70
2018-05-07T13:32:19.513Z,0.80
2018-05-07T13:34:47.680Z,0.73
2018-05-07T13:37:15.798Z,1.00
2018-05-07T13:39:43.911Z,0.90
2018-05-07T13:42:12.800Z,1.00
2018-05-07T13:44:41.682Z,1.00
2018-05-07T13:47:09.814Z,1.15
2018-05-07T13:49:37.918Z,0.70
2018-05-07T13:52:06.030Z,1.25
2018-05-07T13:54:34.909Z,0.88
2018-05-07T13:57:03.042Z,0.90
2018-05-07T13:59:31.159Z,1.10
2018-05-07T14:01:59.290Z,0.90
2018-05-07T14:04:27.393Z,1.00
2018-05-07T14:06:55.520Z,1.05
2018-05-07T14:09:24.413Z,0.77
2018-05-07T14:11:53.298Z,1.08
2018-05-07T14:14:22.193Z,1.15
2018-05-07T14:19:17.656Z,1.23
2018-05-07T14:21:45.778Z,1.23
2018-05-07T14:24:13.893Z,1.00
2018-05-07T14:26:42.785Z,1.00
2018-05-07T14:29:11.696Z,0.88
2018-05-07T14:31:39.906Z,1.12
2018-05-07T14:34:08.010Z,1.10
2018-05-07T14:36:36.162Z,0.98
2018-05-07T14:39:04.281Z,0.77
2018-05-07T14:41:32.402Z,1.05
2018-05-07T14:44:00.524Z,1.35
2018-05-07T14:46:28.628Z,1.10
2018-05-07T14:48:57.513Z,1.05
2018-05-07T14:51:26.393Z,1.23
2018-05-07T14:53:54.545Z,0.90
2018-05-07T14:56:22.764Z,1.42
2018-05-07T14:58:51.659Z,1.20
2018-05-07T15:01:20.523Z,0.88
2018-05-07T15:03:48.835Z,1.10
2018-05-07T15:06:17.729Z,0.93
2018-05-07T15:08:46.664Z,1.00
2018-05-07T15:11:14.938Z,1.00
2018-05-07T15:13:43.121Z,1.60
2018-05-07T15:16:11.283Z,1.37
2018-05-07T15:18:39.416Z,1.15
2018-05-07T15:21:07.722Z,1.12
2018-05-07T15:23:35.899Z,0.98
2018-05-07T15:26:04.769Z,1.17
2018-05-07T15:28:32.908Z,1.08
2018-05-07T15:31:02.019Z,1.12
2018-05-07T15:33:30.138Z,0.90
2018-05-07T15:35:58.251Z,1.12
2018-05-07T15:38:26.370Z,1.02
2018-05-07T15:40:54.495Z,1.50
2018-05-07T15:43:22.628Z,1.33
2018-05-07T15:45:50.737Z,0.85
2018-05-07T15:48:19.610Z,1.10
2018-05-07T15:50:47.711Z,1.12
2018-05-07T15:53:16.650Z,0.90
2018-05-07T15:55:44.832Z,1.27
2018-05-07T15:58:12.960Z,1.30
2018-05-07T16:00:42.732Z,0.80
2018-05-07T16:03:10.972Z,1.20
2018-05-07T16:05:39.126Z,1.10
2018-05-07T16:08:08.023Z,1.27
2018-05-07T16:10:36.905Z,1.00
2018-05-07T16:13:05.050Z,1.10
2018-05-07T16:15:33.205Z,0.80
2018-05-07T16:18:02.044Z,0.90
2018-05-07T16:20:30.159Z,1.12
2018-05-07T16:22:59.021Z,0.80
2018-05-07T16:25:27.150Z,1.33
2018-05-07T16:27:55.254Z,1.00
2018-05-07T16:30:24.139Z,1.23
2018-05-07T16:32:52.294Z,1.20
2018-05-07T16:35:20.411Z,0.90
2018-05-07T16:37:48.513Z,1.00
2018-05-07T16:40:16.643Z,1.00
2018-05-07T16:42:44.768Z,0.73
2018-05-07T16:45:12.898Z,1.17
2018-05-07T16:47:41.012Z,1.00
2018-05-07T16:50:09.139Z,1.00
2018-05-07T16:52:37.333Z,0.90
2018-05-07T16:55:05.466Z,0.93
2018-05-07T16:57:33.529Z,0.80
2018-05-07T17:00:01.652Z,0.85
2018-05-07T17:02:29.766Z,1.30
2018-05-07T17:04:57.900Z,1.15
2018-05-07T17:07:26.014Z,0.77
2018-05-07T17:09:54.140Z,0.80
2018-05-07T17:12:23.047Z,0.93
2018-05-07T17:14:51.189Z,0.85
2018-05-07T17:17:19.323Z,0.98
2018-05-07T17:19:47.464Z,0.77
2018-05-07T17:22:15.594Z,1.15
2018-05-07T17:24:43.715Z,0.75
2018-05-07T17:27:12.590Z,0.80
2018-05-07T17:29:40.701Z,1.00
2018-05-07T17:32:09.630Z,0.73
2018-05-07T17:34:37.775Z,0.98
2018-05-07T17:37:05.894Z,0.90
2018-05-07T17:39:34.042Z,0.80
2018-05-07T17:42:02.265Z,1.15
2018-05-07T17:44:48.974Z,0.90
2018-05-07T17:47:34.957Z,0.82
2018-05-07T17:50:03.105Z,0.70
2018-05-07T17:52:31.232Z,0.93
2018-05-07T17:55:00.103Z,0.90
2018-05-07T17:57:28.239Z,1.00
2018-05-07T17:59:56.383Z,1.10
2018-05-07T18:02:25.256Z,0.80
2018-05-07T18:04:53.396Z,1.10
2018-05-07T18:07:21.531Z,1.10
2018-05-07T18:09:50.414Z,0.70
2018-05-07T18:12:18.509Z,0.80
2018-05-07T18:14:47.423Z,0.88
2018-05-07T18:17:15.569Z,0.95
2018-05-07T18:19:44.445Z,0.80
2018-05-07T18:22:12.588Z,0.95
2018-05-07T18:24:40.761Z,1.00
2018-05-07T18:27:08.856Z,0.85
2018-05-07T18:29:36.993Z,0.75
2018-05-07T18:32:05.107Z,1.00
2018-05-07T18:34:33.245Z,0.90
2018-05-07T18:37:02.115Z,0.90
2018-05-07T18:39:30.237Z,0.77
2018-05-07T18:41:58.354Z,0.93
2018-05-07T18:44:26.519Z,0.75
2018-05-07T18:46:54.670Z,0.90
2018-05-07T18:49:22.776Z,0.82
2018-05-07T18:51:50.886Z,0.70
2018-05-07T18:54:19.778Z,0.90
2018-05-07T18:56:47.913Z,0.85
2018-05-07T18:59:16.077Z,0.90
2018-05-07T19:01:44.212Z,1.12
2018-05-07T19:04:12.308Z,0.60
2018-05-07T19:06:40.458Z,0.85
2018-05-07T19:09:08.561Z,0.90
2018-05-07T19:11:37.457Z,0.70
2018-05-07T19:14:06.322Z,1.20
2018-05-07T19:16:34.445Z,0.80
2018-05-07T19:19:02.600Z,0.60
2018-05-07T19:21:31.493Z,0.90
2018-05-07T19:24:00.396Z,1.00
2018-05-07T19:26:29.260Z,0.77
2018-05-07T19:28:57.380Z,0.80
2018-05-07T19:31:25.514Z,1.10
2018-05-07T19:33:54.350Z,0.82
2018-05-07T19:36:22.465Z,1.12
2018-05-07T19:38:50.617Z,1.25
2018-05-07T19:41:18.755Z,1.02
2018-05-07T19:43:46.881Z,0.90
2018-05-07T19:46:15.012Z,0.90
2018-05-07T19:48:43.886Z,1.15
2018-05-07T19:51:11.994Z,1.10
2018-05-07T19:53:40.873Z,1.08
2018-05-07T19:56:08.999Z,1.08
2018-05-07T19:58:37.109Z,1.20
2018-05-07T20:01:05.224Z,1.50
2018-05-07T20:03:34.246Z,1.25
2018-05-07T20:06:02.402Z,1.17
2018-05-07T20:08:30.522Z,1.40
2018-05-07T20:10:58.626Z,1.23
2018-05-07T20:13:26.740Z,1.37
2018-05-07T20:15:54.857Z,1.33
2018-05-07T20:18:23.036Z,1.35
2018-05-07T20:20:51.178Z,1.30
2018-05-07T20:23:19.294Z,1.08
2018-05-07T20:25:47.399Z,1.50
2018-05-07T20:28:15.537Z,1.25
2018-05-07T20:30:43.654Z,1.30
2018-05-07T20:33:12.546Z,1.20
2018-05-07T20:35:41.425Z,1.20
2018-05-07T20:38:09.542Z,1.20
2018-05-07T20:40:37.649Z,1.15
2018-05-07T20:43:05.761Z,1.20
2018-05-07T20:45:33.900Z,1.27
2018-05-07T20:48:02.134Z,1.17
2018-05-07T20:50:30.142Z,1.25
2018-05-07T20:52:58.245Z,1.30
2018-05-07T20:55:26.383Z,1.27
2018-05-07T20:57:54.497Z,1.20
2018-05-07T21:00:22.628Z,1.20
2018-05-07T21:02:51.515Z,1.10
2018-05-07T21:05:20.391Z,1.58
2018-05-07T21:07:48.517Z,1.37
2018-05-07T21:10:16.625Z,1.10
2018-05-07T21:12:44.737Z,1.60
2018-05-07T21:15:12.849Z,1.20
2018-05-07T21:17:41.008Z,1.17
2018-05-07T21:20:09.875Z,1.27
2018-05-07T21:22:38.032Z,1.30
2018-05-07T21:25:06.130Z,1.10
2018-05-07T21:27:34.255Z,1.20
2018-05-07T21:30:02.375Z,1.20
2018-05-07T21:32:30.489Z,1.23
2018-05-07T21:34:59.364Z,1.50
2018-05-07T21:37:27.466Z,1.27
2018-05-07T21:39:55.595Z,1.33
2018-05-07T21:42:24.469Z,1.20
2018-05-07T21:44:52.585Z,1.10
2018-05-07T21:47:20.697Z,1.17
2018-05-07T21:49:48.829Z,1.30
2018-05-07T21:52:16.929Z,1.05
2018-05-07T21:54:45.808Z,1.33
2018-05-07T21:57:13.934Z,1.80
2018-05-07T21:59:42.081Z,1.12
2018-05-07T22:02:11.009Z,1.30
2018-05-07T22:04:39.845Z,1.23
2018-05-07T22:07:07.957Z,1.17
2018-05-07T22:09:36.854Z,1.77
2018-05-07T22:12:05.713Z,1.02
2018-05-07T22:14:33.826Z,1.60
2018-05-07T22:17:01.922Z,1.10
2018-05-07T22:19:30.050Z,1.20
2018-05-07T22:21:58.150Z,1.30
2018-05-07T22:24:27.034Z,1.30
2018-05-07T22:26:55.912Z,1.37
2018-05-07T22:29:24.006Z,1.65
2018-05-07T22:31:52.876Z,1.60
2018-05-07T22:34:20.983Z,1.50
2018-05-07T22:36:49.860Z,1.65
2018-05-07T22:39:17.967Z,1.60
2018-05-07T22:41:46.137Z,1.50
2018-05-07T22:44:15.005Z,1.55
2018-05-07T22:46:43.133Z,1.40
2018-05-07T22:49:11.308Z,1.20
2018-05-07T22:51:39.410Z,1.30
2018-05-07T22:54:07.517Z,1.67
2018-05-07T22:56:35.628Z,1.75
2018-05-07T22:59:03.751Z,1.70
2018-05-07T23:01:31.854Z,1.62
2018-05-07T23:03:59.969Z,1.50
2018-05-07T23:06:28.077Z,1.62
2018-05-07T23:08:56.185Z,1.77
2018-05-07T23:11:25.070Z,1.48
2018-05-07T23:13:53.190Z,1.77
2018-05-07T23:16:21.324Z,1.62
2018-05-07T23:18:49.550Z,1.60
2018-05-07T23:21:17.664Z,1.60
2018-05-07T23:23:45.762Z,1.50
2018-05-07T23:26:13.906Z,1.60
2018-05-07T23:28:42.023Z,1.60
2018-05-07T23:31:10.906Z,1.65
2018-05-07T23:33:39.030Z,1.45
2018-05-07T23:36:07.135Z,1.70
2018-05-07T23:38:35.252Z,2.08
2018-05-07T23:41:04.179Z,1.52
2018-05-07T23:43:32.292Z,1.50
2018-05-07T23:46:00.411Z,1.98
2018-05-07T23:48:29.297Z,1.50
2018-05-07T23:50:58.225Z,1.40
2018-05-07T23:53:26.401Z,1.55
2018-05-07T23:55:54.501Z,1.60
2018-05-07T23:58:22.604Z,1.60
